Time;durP1;ratioP1;P1;durP2;ratioP2;P2;SDS_P1;SDS_P2;PMS_P1;PMS_P2;Temp;Humidity;BMP_temperature;BMP_pressure;BME280_temperature;BME280_humidity;BME280_pressure;Samples;Min_cycle;Max_cycle;Signal;HPM_P1;HPM_P2
2023/01/27 00:00:10;;;;;;;;;3.00;3.00;;;;;7.49;100.00;101956.53;5056140;28;46004;-79
2023/01/27 00:02:37;;;;;;;;;2.67;2.67;;;;;7.39;100.00;101939.41;5056886;28;45919;-78
2023/01/27 00:05:02;;;;;;;;;4.33;2.67;;;;;7.30;100.00;101921.25;5057431;28;45376;-78
2023/01/27 00:07:28;;;;;;;;;2.33;2.00;;;;;7.48;100.00;101952.09;5067841;27;45378;-77
2023/01/27 00:09:55;;;;;;;;;4.00;1.00;;;;;7.42;100.00;101947.25;5078672;27;45676;-79
2023/01/27 00:15:09;;;;;;;;;2.00;2.00;;;;;7.42;100.00;101933.63;5085334;27;45813;-78
2023/01/27 00:17:35;;;;;;;;;4.00;3.00;;;;;7.45;100.00;101935.19;5049407;27;45388;-77
2023/01/27 00:20:02;;;;;;;;;4.00;2.67;;;;;7.54;100.00;101940.53;5072436;27;45806;-78
2023/01/27 00:25:11;;;;;;;;;2.33;2.00;;;;;7.50;100.00;101939.16;5080827;27;45351;-79
2023/01/27 00:27:37;;;;;;;;;5.00;3.67;;;;;7.63;100.00;101951.53;5062833;28;45922;-78
2023/01/27 00:30:04;;;;;;;;;6.00;2.00;;;;;7.59;100.00;101931.88;5072570;28;45750;-79
2023/01/27 00:35:15;;;;;;;;;4.00;3.00;;;;;7.64;100.00;101942.31;5075156;28;45533;-78
2023/01/27 00:37:42;;;;;;;;;2.00;1.33;;;;;7.63;100.00;101940.59;5072507;28;45700;-78
2023/01/27 00:40:09;;;;;;;;;3.00;1.67;;;;;7.66;100.00;101943.84;5074751;28;45439;-78
2023/01/27 00:42:35;;;;;;;;;4.00;2.00;;;;;7.58;100.00;101919.25;5081343;27;46654;-79
2023/01/27 00:47:47;;;;;;;;;4.00;2.00;;;;;7.68;100.00;101933.66;5072719;28;45506;-77
2023/01/27 00:50:13;;;;;;;;;2.67;2.33;;;;;7.66;100.00;101918.44;5072852;28;45861;-78
2023/01/27 00:52:39;;;;;;;;;3.00;3.00;;;;;7.69;100.00;101926.31;5057740;27;45931;-79
2023/01/27 00:55:05;;;;;;;;;2.33;1.00;;;;;7.64;100.00;101909.56;5041395;28;45776;-78
2023/01/27 00:57:31;;;;;;;;;1.67;1.67;;;;;7.79;100.00;101932.53;5060685;28;45414;-78
2023/01/27 00:59:56;;;;;;;;;4.00;1.33;;;;;7.76;100.00;101936.41;5064550;28;45750;-78
2023/01/27 01:02:21;;;;;;;;;3.00;2.00;;;;;7.75;100.00;101921.06;5056320;28;48315;-78
2023/01/27 01:04:47;;;;;;;;;2.00;2.00;;;;;7.85;100.00;101920.94;5078682;27;45485;-78
2023/01/27 01:07:13;;;;;;;;;4.67;3.33;;;;;7.74;100.00;101930.28;5072920;28;45531;-77
2023/01/27 01:09:38;;;;;;;;;4.00;1.33;;;;;7.70;100.00;101917.94;5072788;28;45777;-77
2023/01/27 01:12:04;;;;;;;;;1.33;1.33;;;;;7.80;100.00;101930.63;5074178;27;46802;-78
2023/01/27 01:14:29;;;;;;;;;4.67;1.00;;;;;7.78;100.00;101922.59;5058815;28;45465;-79
2023/01/27 01:16:55;;;;;;;;;4.67;2.00;;;;;7.83;100.00;101923.00;5054967;28;45430;-78
2023/01/27 01:19:21;;;;;;;;;3.33;3.00;;;;;7.85;100.00;101915.47;5073020;27;45446;-77
2023/01/27 01:21:47;;;;;;;;;4.00;2.00;;;;;7.87;100.00;101926.25;5073575;28;45689;-79
2023/01/27 01:24:12;;;;;;;;;3.00;2.00;;;;;7.86;100.00;101933.59;5051212;28;45403;-79
2023/01/27 01:26:38;;;;;;;;;2.67;2.67;;;;;7.88;100.00;101926.06;5081749;27;45398;-79
2023/01/27 01:29:04;;;;;;;;;3.67;2.67;;;;;7.87;100.00;101909.84;5077315;27;45398;-80
2023/01/27 01:31:29;;;;;;;;;2.67;2.67;;;;;7.88;100.00;101917.88;5066992;28;46990;-77
2023/01/27 01:33:55;;;;;;;;;1.00;1.00;;;;;7.87;100.00;101924.34;5048610;28;45768;-79
2023/01/27 01:36:20;;;;;;;;;1.00;1.00;;;;;7.85;100.00;101907.28;5067209;28;45522;-77
2023/01/27 01:38:46;;;;;;;;;3.00;1.67;;;;;7.87;100.00;101915.31;5067611;28;45579;-77
2023/01/27 01:41:19;;;;;;;;;2.67;2.67;;;;;7.81;100.00;101913.25;5081733;27;45774;-79
2023/01/27 01:43:44;;;;;;;;;4.67;2.33;;;;;7.77;100.00;101918.19;5075636;27;45492;-77
2023/01/27 01:46:10;;;;;;;;;1.33;1.33;;;;;7.75;100.00;101918.34;5074057;28;45558;-78
2023/01/27 01:48:46;;;;;;;;;2.00;2.00;;;;;7.76;100.00;101913.72;5073492;28;45774;-77
2023/01/27 01:51:31;;;;;;;;;2.67;2.00;;;;;7.77;100.00;101918.19;5066010;27;47512;-78
2023/01/27 01:54:33;;;;;;;;;1.00;1.00;;;;;7.80;100.00;101922.44;5053944;28;45450;-77
2023/01/27 01:57:20;;;;;;;;;4.33;2.00;;;;;7.70;100.00;101906.19;5073265;28;45622;-78
2023/01/27 01:59:52;;;;;;;;;2.67;2.67;;;;;7.61;100.00;101913.47;5057316;27;45953;-77
2023/01/27 02:02:22;;;;;;;;;1.00;1.00;;;;;7.60;100.00;101917.19;5059530;28;47376;-76
2023/01/27 02:05:12;;;;;;;;;3.00;1.67;;;;;7.53;100.00;101900.63;5088444;27;45841;-77
2023/01/27 02:07:41;;;;;;;;;1.00;1.00;;;;;7.67;100.00;101909.25;5075025;28;45450;-75
2023/01/27 02:10:07;;;;;;;;;4.00;2.00;;;;;7.62;100.00;101903.38;5075941;28;45835;-76
2023/01/27 02:12:33;;;;;;;;;3.00;2.00;;;;;7.64;100.00;101907.69;5077172;28;46454;-79
2023/01/27 02:14:58;;;;;;;;;7.00;2.00;;;;;7.63;100.00;101899.66;5056508;28;45474;-79
2023/01/27 02:17:24;;;;;;;;;4.00;2.00;;;;;7.68;100.00;101902.75;5063264;28;45348;-78
2023/01/27 02:20:17;;;;;;;;;5.67;2.67;;;;;7.67;100.00;101901.03;5054535;28;45580;-78
2023/01/27 02:23:21;;;;;;;;;2.00;2.00;;;;;7.65;100.00;101897.59;5054625;28;45417;-79
2023/01/27 02:25:49;;;;;;;;;2.00;2.00;;;;;7.67;100.00;101903.78;5070843;28;45561;-77
2023/01/27 02:28:18;;;;;;;;;3.67;2.33;;;;;7.55;100.00;101881.34;5077496;27;45426;-76
2023/01/27 02:30:43;;;;;;;;;2.00;2.00;;;;;7.59;100.00;101897.25;5083860;28;45438;-78
2023/01/27 02:33:13;;;;;;;;;2.00;2.00;;;;;7.57;100.00;101890.22;5076878;28;47798;-77
2023/01/27 02:35:57;;;;;;;;;2.00;2.00;;;;;7.64;100.00;101890.44;5074642;28;45430;-80
2023/01/27 02:38:24;;;;;;;;;1.00;0.67;;;;;7.64;100.00;101890.44;5078939;28;45438;-79
2023/01/27 02:40:53;;;;;;;;;5.00;3.00;;;;;7.66;100.00;101883.78;5061821;28;45633;-79
2023/01/27 02:43:19;;;;;;;;;3.00;1.33;;;;;7.69;100.00;101888.91;5058039;28;46578;-82
2023/01/27 02:45:46;;;;;;;;;1.67;1.67;;;;;7.60;100.00;101868.94;5056964;28;45872;-80
2023/01/27 02:48:12;;;;;;;;;3.00;2.00;;;;;7.54;100.00;101861.38;5057614;28;45505;-77
2023/01/27 02:50:38;;;;;;;;;3.00;2.00;;;;;7.68;100.00;101883.63;5051415;28;45769;-79
2023/01/27 02:53:04;;;;;;;;;1.67;1.67;;;;;7.67;100.00;101893.69;5048739;28;46003;-77
2023/01/27 02:55:30;;;;;;;;;3.00;1.00;;;;;7.62;100.00;101870.63;5058041;28;45315;-80
2023/01/27 02:57:55;;;;;;;;;3.67;2.00;;;;;7.60;100.00;101876.25;5056801;28;45468;-79
2023/01/27 03:00:21;;;;;;;;;2.00;2.00;;;;;7.69;100.00;101888.91;5043233;28;45337;-77
2023/01/27 03:02:47;;;;;;;;;2.67;2.00;;;;;7.65;100.00;101881.22;5046736;28;45443;-78
2023/01/27 03:05:14;;;;;;;;;4.00;3.00;;;;;7.62;100.00;101881.53;5054837;28;46900;-76
2023/01/27 03:07:40;;;;;;;;;9.00;2.00;;;;;7.72;100.00;101883.13;5042323;28;45713;-78
2023/01/27 03:10:07;;;;;;;;;5.67;2.67;;;;;7.70;100.00;101884.34;5054887;28;45493;-79
2023/01/27 03:12:33;;;;;;;;;2.67;1.33;;;;;7.63;100.00;101883.25;5057953;28;45486;-79
2023/01/27 03:20:27;;;;;;;;;1.00;1.00;;;;;7.55;100.00;101875.88;5051440;28;45482;-79
2023/01/27 03:22:53;;;;;;;;;1.00;1.00;;;;;7.48;100.00;101863.91;5050130;28;46278;-77
2023/01/27 03:25:19;;;;;;;;;4.00;1.33;;;;;7.58;100.00;101876.41;5058358;28;45419;-77
2023/01/27 03:27:44;;;;;;;;;4.33;2.00;;;;;7.52;100.00;101874.31;5065550;28;45498;-78
2023/01/27 03:30:10;;;;;;;;;2.00;2.00;;;;;7.46;100.00;101868.66;5024156;28;45713;-78
2023/01/27 03:32:36;;;;;;;;;3.00;2.00;;;;;7.49;100.00;101874.66;5056965;28;46155;-78
2023/01/27 03:35:03;;;;;;;;;3.67;3.00;;;;;7.52;100.00;101877.06;5058784;28;45562;-79
2023/01/27 03:48:33;;;;;;;;;1.00;1.00;;;;;7.43;100.00;101865.22;5079087;28;45664;-76
2023/01/27 03:50:59;;;;;;;;;6.33;3.67;;;;;7.32;100.00;101870.09;5053595;27;45797;-77
2023/01/27 03:53:24;;;;;;;;;2.00;2.00;;;;;7.35;100.00;101854.28;5064014;28;45760;-77
2023/01/27 03:55:50;;;;;;;;;4.00;2.00;;;;;7.39;100.00;101860.25;5060853;28;45445;-77
2023/01/27 03:58:36;;;;;;;;;2.00;2.00;;;;;7.46;100.00;101874.97;5078073;28;45362;-77
2023/01/27 04:01:06;;;;;;;;;4.00;2.00;;;;;7.46;100.00;101866.78;5054834;28;45651;-77
2023/01/27 04:09:06;;;;;;;;;1.00;1.00;;;;;7.47;100.00;101863.06;5076100;28;45543;-77
2023/01/27 04:14:16;;;;;;;;;3.00;3.00;;;;;7.42;100.00;101843.56;5073630;28;45360;-78
2023/01/27 04:16:42;;;;;;;;;5.00;2.00;;;;;7.54;100.00;101866.81;5077525;28;45382;-79
2023/01/27 04:19:09;;;;;;;;;2.33;1.00;;;;;7.58;100.00;101870.94;5078248;28;45302;-79
2023/01/27 04:21:35;;;;;;;;;3.33;3.33;;;;;7.52;100.00;101855.22;5077003;27;45562;-80
2023/01/27 04:24:03;;;;;;;;;3.67;2.00;;;;;7.61;100.00;101869.78;5055651;28;46710;-79
2023/01/27 04:26:33;;;;;;;;;1.00;1.00;;;;;7.60;100.00;101860.75;5075942;28;45533;-78
2023/01/27 04:29:00;;;;;;;;;6.33;3.33;;;;;7.55;100.00;101870.44;5076399;28;45430;-77
2023/01/27 04:31:25;;;;;;;;;2.00;1.00;;;;;7.54;100.00;101861.38;5075372;28;45992;-77
2023/01/27 04:33:52;;;;;;;;;1.33;1.00;;;;;7.51;100.00;101858.97;5075805;28;47115;-77
2023/01/27 04:36:18;;;;;;;;;4.00;2.00;;;;;7.46;100.00;101866.78;5075097;27;45465;-76
2023/01/27 04:38:49;;;;;;;;;3.67;0.00;;;;;7.44;100.00;101868.84;5075748;28;45939;-78
2023/01/27 04:41:15;;;;;;;;;2.33;2.33;;;;;7.42;100.00;101860.81;5078776;27;45833;-75
2023/01/27 04:43:40;;;;;;;;;3.33;2.00;;;;;7.37;100.00;101852.22;5074316;28;45493;-76
2023/01/27 04:46:06;;;;;;;;;3.00;3.00;;;;;7.24;100.00;101843.59;5070710;28;45382;-77
2023/01/27 04:48:31;;;;;;;;;4.00;2.67;;;;;7.27;100.00;101839.72;5049728;28;45406;-76
2023/01/27 04:50:57;;;;;;;;;3.00;1.67;;;;;7.36;100.00;101844.19;5073855;28;45521;-76
2023/01/27 04:53:22;;;;;;;;;1.00;0.00;;;;;7.39;100.00;101855.63;5052374;28;46844;-75
2023/01/27 04:55:48;;;;;;;;;3.00;3.00;;;;;7.41;100.00;101850.06;5068410;28;45743;-79
2023/01/27 04:58:16;;;;;;;;;2.00;2.00;;;;;7.44;100.00;101852.47;5042482;28;45356;-78
2023/01/27 05:00:43;;;;;;;;;0.67;0.00;;;;;7.39;100.00;101850.19;5054010;28;45739;-77
2023/01/27 05:03:10;;;;;;;;;3.67;2.00;;;;;7.39;100.00;101850.19;5074993;27;45781;-77
2023/01/27 05:05:36;;;;;;;;;3.00;2.00;;;;;7.36;100.00;101846.94;5069939;28;45567;-78
2023/01/27 05:08:06;;;;;;;;;1.00;1.00;;;;;7.33;100.00;101839.06;5069998;28;45523;-78
2023/01/27 05:10:31;;;;;;;;;3.00;1.00;;;;;7.35;100.00;101847.94;5073948;28;45611;-78
2023/01/27 05:12:58;;;;;;;;;3.00;2.00;;;;;7.35;100.00;101853.38;5070794;28;45830;-77
2023/01/27 05:15:24;;;;;;;;;2.00;2.00;;;;;7.27;100.00;101840.56;5072117;27;45371;-78
2023/01/27 05:17:49;;;;;;;;;3.00;3.00;;;;;7.27;100.00;101836.97;5074880;28;45390;-79
2023/01/27 05:20:15;;;;;;;;;4.00;3.00;;;;;7.29;100.00;101844.00;5071275;28;45822;-79
2023/01/27 05:22:41;;;;;;;;;4.67;2.00;;;;;7.19;100.00;101837.78;5057777;28;47148;-79
2023/01/27 05:25:07;;;;;;;;;4.67;3.33;;;;;7.22;100.00;101837.47;5064410;28;45371;-78
2023/01/27 05:27:33;;;;;;;;;3.00;2.00;;;;;7.19;100.00;101838.63;5074454;27;45505;-81
2023/01/27 05:29:59;;;;;;;;;3.00;3.00;;;;;7.30;100.00;101847.56;5082769;27;45603;-82
2023/01/27 05:32:24;;;;;;;;;2.00;2.00;;;;;7.19;100.00;101827.72;5059595;28;45621;-80
2023/01/27 05:34:51;;;;;;;;;3.00;2.00;;;;;7.25;100.00;101846.19;5077776;28;45453;-79
2023/01/27 05:37:16;;;;;;;;;4.00;2.00;;;;;7.14;100.00;101829.22;5061574;27;45467;-82
2023/01/27 05:39:42;;;;;;;;;2.00;2.00;;;;;7.28;100.00;101857.81;5083214;27;45811;-81
2023/01/27 05:42:07;;;;;;;;;2.00;1.00;;;;;7.30;100.00;101850.31;5054300;28;47540;-81
2023/01/27 05:44:33;;;;;;;;;4.00;2.67;;;;;7.30;100.00;101856.59;5075949;28;45374;-83
2023/01/27 05:46:58;;;;;;;;;2.33;2.33;;;;;7.21;100.00;101833.84;5074944;28;45416;-79
2023/01/27 05:49:24;;;;;;;;;4.00;2.67;;;;;7.25;100.00;101848.91;5078513;28;45506;-82
2023/01/27 05:51:50;;;;;;;;;4.67;2.33;;;;;7.28;100.00;101846.88;5081608;27;45707;-79
2023/01/27 05:54:16;;;;;;;;;4.00;3.00;;;;;7.12;100.00;101834.81;5058654;28;45461;-79
2023/01/27 05:56:41;;;;;;;;;4.33;2.33;;;;;7.25;100.00;101859.81;5059594;28;45462;-80
2023/01/27 05:59:09;;;;;;;;;6.00;3.33;;;;;7.24;100.00;101854.53;5076887;27;45401;-82
2023/01/27 06:01:36;;;;;;;;;3.00;1.00;;;;;7.23;100.00;101861.84;5071730;27;45650;-79
2023/01/27 06:04:05;;;;;;;;;7.00;2.00;;;;;7.19;100.00;101852.28;5075917;27;45461;-80
2023/01/27 06:06:32;;;;;;;;;6.67;2.33;;;;;7.16;100.00;101860.78;5074646;27;45485;-79
2023/01/27 06:08:58;;;;;;;;;1.33;0.00;;;;;7.09;100.00;101837.88;5070859;27;45536;-79
2023/01/27 06:11:24;;;;;;;;;2.67;2.67;;;;;7.18;100.00;101852.44;5056484;28;47382;-79
2023/01/27 06:13:52;;;;;;;;;2.67;2.67;;;;;7.16;100.00;101851.75;5074939;27;45315;-79
2023/01/27 06:16:19;;;;;;;;;3.00;2.00;;;;;7.11;100.00;101862.25;5072678;27;45437;-82
2023/01/27 06:18:50;;;;;;;;;2.67;1.67;;;;;7.02;100.00;101842.25;5082505;27;45822;-81
2023/01/27 06:21:16;;;;;;;;;4.00;3.00;;;;;7.06;100.00;101860.00;5082927;27;47511;-80
2023/01/27 06:23:42;;;;;;;;;3.67;2.00;;;;;6.99;100.00;101846.16;5078092;27;45389;-82
2023/01/27 06:26:13;;;;;;;;;1.33;1.33;;;;;7.04;100.00;101859.31;5070428;28;45778;-80
2023/01/27 06:28:45;;;;;;;;;5.67;3.67;;;;;7.04;100.00;101862.06;5079453;27;45477;-82
2023/01/27 06:31:14;;;;;;;;;5.00;2.00;;;;;7.04;100.00;101859.31;5068785;28;46772;-79
2023/01/27 06:33:40;;;;;;;;;3.00;1.33;;;;;7.04;100.00;101862.91;5074984;28;45447;-79
2023/01/27 06:36:10;;;;;;;;;5.00;3.00;;;;;7.04;100.00;101868.34;5082559;27;45335;-82
2023/01/27 06:38:36;;;;;;;;;4.00;2.00;;;;;6.86;100.00;101840.25;5095012;27;45483;-80
2023/01/27 06:41:02;;;;;;;;;4.67;4.00;;;;;6.80;100.00;101816.34;5058038;28;46904;-80
2023/01/27 06:43:28;;;;;;;;;4.00;3.00;;;;;6.92;100.00;101842.34;5071347;28;45390;-78
2023/01/27 06:45:56;;;;;;;;;5.00;3.67;;;;;7.06;100.00;101860.84;5046686;28;45380;-79
2023/01/27 06:48:22;;;;;;;;;5.33;3.33;;;;;6.88;100.00;101841.78;5058924;28;45749;-81
2023/01/27 06:50:52;;;;;;;;;5.33;4.33;;;;;6.86;100.00;101841.09;5059042;28;45442;-76
2023/01/27 06:53:18;;;;;;;;;5.33;4.00;;;;;7.07;100.00;101873.50;5048247;28;45439;-83
2023/01/27 06:56:07;;;;;;;;;4.67;3.67;;;;;7.07;100.00;101864.47;5059457;28;45624;-85
2023/01/27 06:58:43;;;;;;;;;8.33;6.67;;;;;6.89;100.00;101837.22;5065056;28;44851;-87
2023/01/27 07:01:35;;;;;;;;;8.00;3.33;;;;;6.81;100.00;101818.91;5034098;28;45374;-86
2023/01/27 07:08:06;;;;;;;;;6.33;3.00;;;;;6.99;100.00;101867.09;5010011;28;45429;-85
2023/01/27 07:10:39;;;;;;;;;2.33;2.33;;;;;7.01;100.00;101865.09;5015119;28;45552;-84
2023/01/27 07:13:30;;;;;;;;;4.33;2.00;;;;;7.00;100.00;101877.00;5083897;28;45309;-85
2023/01/27 07:16:01;;;;;;;;;6.33;5.67;;;;;6.75;100.00;101833.19;5068891;28;45336;-85
2023/01/27 07:18:48;;;;;;;;;4.00;4.00;;;;;6.80;100.00;101841.75;5054591;28;45534;-86
2023/01/27 07:21:18;;;;;;;;;4.67;4.67;;;;;6.76;100.00;101843.06;5052006;28;45141;-86
2023/01/27 07:23:58;;;;;;;;;4.00;1.67;;;;;7.10;100.00;101880.50;5079685;28;46004;-83
2023/01/27 07:26:32;;;;;;;;;5.00;5.00;;;;;7.07;100.00;101884.41;5071095;28;45398;-86
2023/01/27 07:29:18;;;;;;;;;10.00;4.33;;;;;7.04;100.00;101887.44;5073642;28;45483;-87
2023/01/27 07:43:08;;;;;;;;;;;;;;;;;;;;;
2023/01/27 07:45:47;;;;;;;;;5.00;5.00;;;;;6.94;100.00;101911.22;4980655;28;73274;-88
2023/01/27 07:48:25;;;;;;;;;4.00;3.00;;;;;6.94;100.00;101910.38;4989915;28;47315;-89
2023/01/27 07:51:20;;;;;;;;;6.33;4.67;;;;;6.70;100.00;101877.25;5079490;27;45418;-84
2023/01/27 07:53:49;;;;;;;;;5.00;4.67;;;;;6.97;100.00;101901.88;5068149;27;45754;-88
2023/01/27 07:56:22;;;;;;;;;8.00;5.00;;;;;6.67;100.00;101865.81;5074038;27;45414;-85
2023/01/27 07:58:54;;;;;;;;;7.00;5.67;;;;;6.65;100.00;101868.69;5082738;28;47058;-86
2023/01/27 08:01:20;;;;;;;;;8.67;4.00;;;;;6.57;100.00;101859.56;5069405;28;45478;-86
2023/01/27 08:03:46;;;;;;;;;5.33;4.67;;;;;6.78;100.00;101908.34;5076527;28;45404;-85
2023/01/27 08:06:15;;;;;;;;;5.00;5.00;;;;;6.88;100.00;101928.19;5076316;27;45558;-79
2023/01/27 08:08:40;;;;;;;;;6.00;3.67;;;;;6.83;100.00;101906.00;5072877;27;47773;-80
2023/01/27 08:11:07;;;;;;;;;7.67;5.00;;;;;6.91;100.00;101921.59;5080189;27;45529;-79
2023/01/27 08:13:34;;;;;;;;;6.33;3.67;;;;;6.91;100.00;101921.59;5065574;27;45233;-80
2023/01/27 08:16:04;;;;;;;;;4.67;4.67;;;;;6.70;100.00;101890.88;5056766;27;46399;-78
2023/01/27 08:18:29;;;;;;;;;5.00;5.00;;;;;6.94;100.00;101924.84;5079157;27;46091;-80
2023/01/27 08:20:59;;;;;;;;;13.33;11.33;;;;;6.95;100.00;101925.72;5066840;28;45612;-81
2023/01/27 08:23:25;;;;;;;;;9.33;6.00;;;;;6.98;100.00;101939.06;5081488;27;45902;-80
2023/01/27 08:25:54;;;;;;;;;3.00;2.00;;;;;7.02;100.00;101929.53;5084934;27;45773;-86
2023/01/27 08:28:24;;;;;;;;;9.67;6.00;;;;;7.05;100.00;101935.53;5069696;28;45601;-85
2023/01/27 08:30:50;;;;;;;;;6.33;4.00;;;;;6.95;100.00;101925.72;5072271;28;45433;-81
2023/01/27 08:33:20;;;;;;;;;8.00;7.00;;;;;6.96;100.00;101930.16;5074127;27;45456;-81
2023/01/27 08:35:47;;;;;;;;;6.00;5.00;;;;;6.92;100.00;101928.78;5078781;28;46468;-79
2023/01/27 08:38:15;;;;;;;;;11.00;7.00;;;;;6.99;100.00;101935.28;5066158;28;47560;-79
2023/01/27 08:40:41;;;;;;;;;6.33;4.67;;;;;6.93;100.00;101928.63;5065911;28;45455;-80
2023/01/27 08:43:08;;;;;;;;;8.33;5.33;;;;;6.97;100.00;101926.41;5081091;27;45476;-90
2023/01/27 08:45:34;;;;;;;;;7.67;5.67;;;;;6.99;100.00;101943.47;5070022;28;45463;-80
2023/01/27 08:48:01;;;;;;;;;12.33;6.67;;;;;6.98;100.00;101945.34;5078406;28;46117;-80
2023/01/27 08:50:29;;;;;;;;;6.00;5.00;;;;;6.93;100.00;101944.09;5084333;27;45751;-80
2023/01/27 08:52:58;;;;;;;;;8.00;6.67;;;;;6.99;100.00;101965.28;5078473;27;45372;-81
2023/01/27 08:55:32;;;;;;;;;11.00;6.00;;;;;6.87;100.00;101943.72;5057961;28;46978;-82
2023/01/27 08:57:57;;;;;;;;;7.00;6.00;;;;;6.97;100.00;101953.69;5058768;28;46266;-80
2023/01/27 09:00:23;;;;;;;;;12.33;7.67;;;;;6.97;100.00;101965.44;5060684;28;45510;-80
2023/01/27 09:02:52;;;;;;;;;10.33;9.00;;;;;6.73;100.00;101930.59;5076371;27;45498;-83
2023/01/27 09:05:19;;;;;;;;;4.67;4.67;;;;;6.91;100.00;101970.69;5080477;28;45544;-79
2023/01/27 09:07:49;;;;;;;;;9.67;6.67;;;;;6.91;100.00;101978.84;5065440;28;47074;-82
2023/01/27 09:10:15;;;;;;;;;5.00;3.67;;;;;6.68;100.00;101932.97;5062942;28;45480;-81
2023/01/27 09:12:42;;;;;;;;;10.00;7.00;;;;;6.61;100.00;101929.13;5093012;27;45469;-81
2023/01/27 09:15:08;;;;;;;;;11.67;7.67;;;;;6.51;100.00;101910.97;5095394;27;45753;-81
2023/01/27 09:17:34;;;;;;;;;11.67;9.00;;;;;6.91;100.00;101973.41;5061512;28;46723;-80
2023/01/27 09:20:00;;;;;;;;;8.33;7.00;;;;;6.70;100.00;101936.38;5061992;28;45669;-81
2023/01/27 09:22:25;;;;;;;;;10.33;7.00;;;;;6.57;100.00;101920.38;5061729;28;45456;-80
2023/01/27 09:24:51;;;;;;;;;8.67;6.67;;;;;6.94;100.00;101975.81;5077811;28;45712;-79
2023/01/27 09:27:16;;;;;;;;;11.00;8.50;;;;;6.93;100.00;101974.97;5057272;28;48158;-79
2023/01/27 09:29:42;;;;;;;;;11.00;8.33;;;;;6.87;100.00;101954.63;5074643;28;45602;-81
2023/01/27 09:32:11;;;;;;;;;9.33;6.67;;;;;6.94;100.00;101981.28;5075525;28;45896;-79
2023/01/27 09:34:36;;;;;;;;;11.33;7.00;;;;;6.96;100.00;101973.78;5072846;28;45711;-80
2023/01/27 09:37:08;;;;;;;;;6.00;4.00;;;;;6.97;100.00;101970.06;5078948;27;48044;-79
2023/01/27 09:39:46;;;;;;;;;6.67;5.00;;;;;6.77;100.00;101953.84;5059497;28;45418;-80
2023/01/27 09:42:14;;;;;;;;;7.33;5.67;;;;;6.91;100.00;101981.59;5074129;28;45964;-82
2023/01/27 09:45:05;;;;;;;;;13.67;7.67;;;;;6.87;100.00;101983.75;5079729;28;45457;-81
2023/01/27 09:47:33;;;;;;;;;7.00;5.67;;;;;6.69;100.00;101967.38;5047907;28;46016;-83
2023/01/27 09:50:28;;;;;;;;;5.33;5.33;;;;;6.76;100.00;101968.47;5077976;28;45457;-81
2023/01/27 09:53:18;;;;;;;;;4.00;4.00;;;;;6.76;100.00;101973.91;5053334;28;45508;-80
2023/01/27 09:56:00;;;;;;;;;11.00;10.00;;;;;6.62;100.00;101969.84;5096147;27;45353;-80
2023/01/27 09:58:47;;;;;;;;;8.00;5.33;;;;;6.61;100.00;101968.13;5083375;27;45456;-81
2023/01/27 10:01:16;;;;;;;;;11.67;6.67;;;;;6.29;100.00;101950.38;5083645;28;45624;-82
2023/01/27 10:04:26;;;;;;;;;10.00;7.00;;;;;6.63;100.00;101992.50;5079689;28;45527;-81
2023/01/27 10:07:24;;;;;;;;;3.33;3.00;;;;;6.48;100.00;102013.97;5071452;28;45624;-82
2023/01/27 10:10:10;;;;;;;;;6.67;5.00;;;;;6.47;100.00;101968.66;5082989;28;45419;-82
2023/01/27 10:12:55;;;;;;;;;10.67;7.00;;;;;6.61;100.00;101991.81;5079334;27;45530;-80
2023/01/27 10:15:32;;;;;;;;;6.00;6.00;;;;;6.66;100.00;102005.84;5078966;28;45975;-83
2023/01/27 10:18:19;;;;;;;;;8.33;6.67;;;;;6.62;100.00;101988.09;5084148;27;46393;-81
2023/01/27 10:21:17;;;;;;;;;8.33;6.67;;;;;6.63;100.00;101982.47;5085627;27;46467;-80
2023/01/27 10:24:17;;;;;;;;;6.00;5.67;;;;;6.72;100.00;102010.66;5077513;27;45366;-81
2023/01/27 10:26:54;;;;;;;;;7.33;6.00;;;;;6.76;100.00;101997.63;5051441;28;45741;-82
2023/01/27 10:29:19;;;;;;;;;6.00;5.00;;;;;6.80;100.00;102001.75;5065591;27;45752;-82
2023/01/27 10:32:25;;;;;;;;;8.00;4.67;;;;;6.80;100.00;102007.22;5060671;28;47007;-82
2023/01/27 10:34:56;;;;;;;;;9.00;7.33;;;;;6.70;100.00;101983.56;5035609;28;45642;-82
2023/01/27 10:37:53;;;;;;;;;9.67;7.00;;;;;6.83;100.00;102004.19;5073503;28;45500;-82
2023/01/27 10:40:38;;;;;;;;;6.00;5.00;;;;;6.75;100.00;101999.50;5090313;27;45581;-82
2023/01/27 10:43:15;;;;;;;;;6.67;5.00;;;;;6.51;100.00;101976.38;5091963;27;45261;-82
2023/01/27 10:45:56;;;;;;;;;6.00;5.00;;;;;6.74;100.00;102003.22;5079581;27;45475;-81
2023/01/27 10:48:48;;;;;;;;;5.33;5.33;;;;;6.30;100.00;101967.56;5064362;27;45896;-82
2023/01/27 10:51:26;;;;;;;;;11.00;11.00;;;;;6.54;100.00;102022.41;5062911;28;46209;-82
2023/01/27 10:54:24;;;;;;;;;10.67;7.00;;;;;6.55;100.00;102036.88;5059536;28;47363;-82
2023/01/27 11:00:42;;;;;;;;;10.00;9.33;;;;;6.43;100.00;102022.59;5084095;27;45528;-82
2023/01/27 11:03:27;;;;;;;;;12.33;9.00;;;;;6.23;100.00;101988.25;5058738;28;45698;-81
2023/01/27 11:05:59;;;;;;;;;10.67;5.33;;;;;6.24;100.00;101996.28;5088065;27;45871;-81
2023/01/27 11:08:29;;;;;;;;;11.67;6.00;;;;;5.91;100.00;101948.63;5076160;27;45863;-82
2023/01/27 11:13:46;;;;;;;;;8.67;8.67;;;;;6.30;100.00;102011.16;5072821;27;45691;-81
2023/01/27 11:16:18;;;;;;;;;9.67;7.67;;;;;6.27;100.00;101996.00;5058240;28;45477;-82
2023/01/27 11:18:45;;;;;;;;;7.67;7.67;;;;;6.31;100.00;102002.00;5066223;28;45905;-81
2023/01/27 11:21:29;;;;;;;;;9.67;9.00;;;;;6.35;100.00;102012.44;5061936;28;45471;-88
2023/01/27 11:23:58;;;;;;;;;9.00;7.00;;;;;6.32;100.00;101993.66;5063095;28;45476;-83
2023/01/27 11:26:31;;;;;;;;;9.33;9.33;;;;;6.35;100.00;101978.91;5073290;27;47785;-81
2023/01/27 11:29:19;;;;;;;;;9.33;9.00;;;;;6.47;100.00;102002.22;5085251;27;45972;-83
2023/01/27 11:32:03;;;;;;;;;13.00;10.33;;;;;6.39;100.00;101980.28;5065601;28;45993;-82
2023/01/27 11:34:52;;;;;;;;;10.00;10.00;;;;;6.45;100.00;101981.56;5084943;27;45829;-83
2023/01/27 11:37:29;;;;;;;;;10.33;8.00;;;;;6.33;100.00;101945.47;5081507;28;46364;-84
2023/01/27 11:39:55;;;;;;;;;9.33;6.00;;;;;6.52;100.00;101969.91;5068998;28;45623;-83
2023/01/27 11:42:36;;;;;;;;;10.00;9.33;;;;;6.66;100.00;101981.28;5066751;28;46518;-86
2023/01/27 11:45:04;;;;;;;;;11.67;9.00;;;;;6.60;100.00;101960.97;5084960;28;46187;-86
2023/01/27 11:47:35;;;;;;;;;11.00;10.67;;;;;6.69;100.00;101970.97;5054321;28;47847;-83
2023/01/27 11:50:25;;;;;;;;;9.67;7.33;;;;;6.58;100.00;101943.06;5075267;28;44859;-86
2023/01/27 11:53:52;;;;;;;;;12.33;9.00;;;;;6.53;100.00;101933.47;5080923;28;45353;-87
2023/01/27 11:56:19;;;;;;;;;11.33;10.00;;;;;6.79;100.00;101967.31;5005921;28;45444;-85
2023/01/27 11:58:57;;;;;;;;;7.67;6.33;;;;;6.71;100.00;101970.81;5073822;27;45568;-88
2023/01/27 12:01:35;;;;;;;;;8.33;6.67;;;;;6.54;100.00;101935.19;5073624;28;45596;-84
2023/01/27 12:04:14;;;;;;;;;12.33;7.67;;;;;6.83;100.00;101979.63;5059799;28;45719;-88
2023/01/27 12:06:42;;;;;;;;;9.00;6.33;;;;;6.68;100.00;101960.22;5060896;28;45474;-84
2023/01/27 12:09:35;;;;;;;;;8.33;7.00;;;;;6.70;100.00;101977.25;5060236;28;46872;-82
2023/01/27 12:12:27;;;;;;;;;8.00;6.67;;;;;6.63;100.00;101978.88;5075989;28;44872;-80
2023/01/27 12:14:57;;;;;;;;;13.33;11.00;;;;;6.58;100.00;101965.72;5069505;27;45402;-83
2023/01/27 12:17:32;;;;;;;;;7.33;6.00;;;;;6.69;100.00;101972.81;5045763;28;45814;-85
2023/01/27 12:20:05;;;;;;;;;14.00;11.67;;;;;6.64;100.00;101953.34;5064059;27;45798;-84
2023/01/27 12:22:37;;;;;;;;;4.00;3.67;;;;;6.77;100.00;101969.34;5066036;27;45845;-84
2023/01/27 12:25:12;;;;;;;;;13.00;10.33;;;;;6.75;100.00;101952.25;5056359;27;45773;-83
2023/01/27 12:27:47;;;;;;;;;8.33;8.33;;;;;6.71;100.00;101951.72;5076492;27;45816;-82
2023/01/27 12:30:21;;;;;;;;;17.67;12.67;;;;;6.78;100.00;101962.88;5067653;27;45949;-83
2023/01/27 12:32:47;;;;;;;;;17.00;10.67;;;;;6.83;100.00;101958.66;5056280;27;45735;-83
2023/01/27 12:35:34;;;;;;;;;11.67;5.67;;;;;6.70;100.00;101926.31;5074740;27;45841;-83
2023/01/27 12:38:12;;;;;;;;;15.33;12.67;;;;;6.86;100.00;101944.72;5073397;27;45494;-88
2023/01/27 12:40:43;;;;;;;;;11.33;10.00;;;;;6.67;100.00;101923.06;5054073;27;47172;-84